CEB2627 RPLL-RPVD
Flight info
| Callsign | CEB2627 |
|---|---|
| Flight time | 1h 12m |
| Altitude | 31000 |
| Route | VERDE2C VERDE A461 SAJ W3 IOO B472 NANAS NANAS1W |
| Aircraft | A320/M-SDE3FGHIRWY/LB1 |
Departure
| Time | 2026-05-04 14:29 |
|---|---|
| Airport | Ninoy Aquino International Airport (RPLL) |
Arrival
| Time | 2026-05-04 15:41 |
|---|---|
| Airport | Sibulan Airport (RPVD) |
| Time | Latitude | Longitude | Altitude | Speed | Heading |
|---|---|---|---|---|---|
| 2026-05-04 14:02 | 14.52505 | 121.00660 | 82 ft | 0 kts | 45° |
| 2026-05-04 14:18 | 14.52490 | 121.00645 | 82 ft | 2 kts | 45° |
| 2026-05-04 14:19 | 14.52469 | 121.00623 | 82 ft | 2 kts | 45° |
| 2026-05-04 14:19 | 14.52459 | 121.00612 | 82 ft | 2 kts | 45° |
| 2026-05-04 14:19 | 14.52448 | 121.00601 | 82 ft | 1 kts | 45° |
| 2026-05-04 14:19 | 14.52441 | 121.00594 | 82 ft | 2 kts | 28° |
| 2026-05-04 14:20 | 14.52426 | 121.00591 | 82 ft | 2 kts | 346° |
| 2026-05-04 14:20 | 14.52416 | 121.00596 | 82 ft | 0 kts | 318° |
| 2026-05-04 14:20 | 14.52411 | 121.00601 | 82 ft | 0 kts | 314° |
| 2026-05-04 14:21 | 14.52411 | 121.00602 | 82 ft | 0 kts | 314° |
| 2026-05-04 14:22 | 14.52412 | 121.00600 | 82 ft | 0 kts | 314° |
| 2026-05-04 14:22 | 14.52414 | 121.00598 | 82 ft | 0 kts | 315° |
| 2026-05-04 14:22 | 14.52417 | 121.00595 | 82 ft | 0 kts | 315° |
| 2026-05-04 14:22 | 14.52422 | 121.00590 | 82 ft | 0 kts | 316° |
| 2026-05-04 14:23 | 14.52433 | 121.00580 | 82 ft | 1 kts | 316° |
| 2026-05-04 14:23 | 14.52439 | 121.00574 | 82 ft | 1 kts | 316° |
| 2026-05-04 14:23 | 14.52449 | 121.00564 | 82 ft | 2 kts | 316° |
| 2026-05-04 14:24 | 14.52467 | 121.00547 | 82 ft | 4 kts | 316° |
| 2026-05-04 14:24 | 14.52490 | 121.00524 | 82 ft | 5 kts | 316° |
| 2026-05-04 14:24 | 14.52515 | 121.00497 | 82 ft | 4 kts | 310° |
| 2026-05-04 14:24 | 14.52536 | 121.00470 | 82 ft | 5 kts | 301° |
| 2026-05-04 14:25 | 14.52545 | 121.00432 | 82 ft | 5 kts | 269° |
| 2026-05-04 14:25 | 14.52541 | 121.00353 | 82 ft | 2 kts | 267° |
| 2026-05-04 14:26 | 14.52541 | 121.00351 | 82 ft | 0 kts | 267° |
| 2026-05-04 14:26 | 14.52540 | 121.00340 | 82 ft | 2 kts | 267° |
| 2026-05-04 14:26 | 14.52539 | 121.00312 | 82 ft | 5 kts | 267° |
| 2026-05-04 14:26 | 14.52536 | 121.00272 | 82 ft | 5 kts | 262° |
| 2026-05-04 14:27 | 14.52509 | 121.00256 | 82 ft | 5 kts | 154° |
| 2026-05-04 14:27 | 14.52477 | 121.00288 | 82 ft | 6 kts | 134° |
| 2026-05-04 14:27 | 14.52440 | 121.00325 | 82 ft | 7 kts | 135° |
| 2026-05-04 14:27 | 14.52400 | 121.00368 | 82 ft | 8 kts | 134° |
| 2026-05-04 14:28 | 14.52355 | 121.00415 | 82 ft | 9 kts | 134° |
| 2026-05-04 14:28 | 14.52205 | 121.00570 | 82 ft | 65 kts | 134° |
| 2026-05-04 14:28 | 14.51713 | 121.01079 | 82 ft | 131 kts | 135° |
| 2026-05-04 14:28 | 14.51018 | 121.01791 | 544 ft | 137 kts | 135° |
| 2026-05-04 14:29 | 14.49689 | 121.03152 | 1513 ft | 145 kts | 134° |
| 2026-05-04 14:29 | 14.48205 | 121.04700 | 2171 ft | 163 kts | 134° |
| 2026-05-04 14:30 | 14.47372 | 121.05570 | 2451 ft | 177 kts | 133° |
| 2026-05-04 14:30 | 14.46460 | 121.06515 | 2736 ft | 192 kts | 133° |
| 2026-05-04 14:30 | 14.45135 | 121.07888 | 3069 ft | 215 kts | 133° |
| 2026-05-04 14:31 | 14.40310 | 121.09267 | 4073 ft | 275 kts | 194° |
| 2026-05-04 14:32 | 14.29637 | 121.07591 | 7557 ft | 289 kts | 180° |
| 2026-05-04 14:33 | 14.27583 | 121.07514 | 8171 ft | 293 kts | 181° |
| 2026-05-04 14:33 | 14.25525 | 121.07423 | 8765 ft | 295 kts | 181° |
| 2026-05-04 14:33 | 14.23444 | 121.07320 | 9326 ft | 297 kts | 182° |
| 2026-05-04 14:33 | 14.21358 | 121.07210 | 9850 ft | 301 kts | 182° |
| 2026-05-04 14:34 | 14.19243 | 121.07095 | 10333 ft | 305 kts | 182° |
| 2026-05-04 14:34 | 14.17072 | 121.06974 | 10603 ft | 318 kts | 182° |
| 2026-05-04 14:34 | 14.14801 | 121.06846 | 10850 ft | 331 kts | 182° |
| 2026-05-04 14:34 | 14.12444 | 121.06711 | 11255 ft | 338 kts | 182° |
| 2026-05-04 14:35 | 14.10067 | 121.06574 | 11785 ft | 340 kts | 182° |
| 2026-05-04 14:35 | 14.07676 | 121.06436 | 12306 ft | 342 kts | 181° |
| 2026-05-04 14:35 | 14.05288 | 121.06302 | 12799 ft | 345 kts | 181° |
| 2026-05-04 14:35 | 14.02862 | 121.06167 | 13283 ft | 347 kts | 181° |
| 2026-05-04 14:36 | 14.00427 | 121.06029 | 13756 ft | 349 kts | 181° |
| 2026-05-04 14:36 | 13.98012 | 121.05894 | 14211 ft | 351 kts | 181° |
| 2026-05-04 14:36 | 13.95524 | 121.05753 | 14677 ft | 354 kts | 181° |
| 2026-05-04 14:36 | 13.93048 | 121.05612 | 15137 ft | 356 kts | 181° |
| 2026-05-04 14:37 | 13.90552 | 121.05471 | 15575 ft | 357 kts | 181° |
| 2026-05-04 14:37 | 13.88080 | 121.05331 | 16004 ft | 359 kts | 181° |
| 2026-05-04 14:37 | 13.85550 | 121.05188 | 16438 ft | 362 kts | 181° |
| 2026-05-04 14:38 | 13.79922 | 121.04868 | 17364 ft | 366 kts | 181° |
| 2026-05-04 14:38 | 13.78216 | 121.04771 | 17631 ft | 367 kts | 181° |
| 2026-05-04 14:38 | 13.74760 | 121.04574 | 18160 ft | 370 kts | 181° |
| 2026-05-04 14:38 | 13.73045 | 121.04475 | 18413 ft | 370 kts | 181° |
| 2026-05-04 14:39 | 13.70440 | 121.04327 | 18786 ft | 372 kts | 181° |
| 2026-05-04 14:39 | 13.66945 | 121.04130 | 19258 ft | 374 kts | 181° |
| 2026-05-04 14:39 | 13.65177 | 121.04029 | 19481 ft | 376 kts | 181° |
| 2026-05-04 14:40 | 13.59922 | 121.03731 | 20164 ft | 380 kts | 181° |
| 2026-05-04 14:40 | 13.56363 | 121.03529 | 20610 ft | 382 kts | 181° |
| 2026-05-04 14:40 | 13.53676 | 121.03375 | 20937 ft | 384 kts | 182° |
| 2026-05-04 14:40 | 13.51903 | 121.03275 | 21148 ft | 385 kts | 182° |
| 2026-05-04 14:41 | 13.49192 | 121.03198 | 21459 ft | 386 kts | 179° |
| 2026-05-04 14:41 | 13.45572 | 121.03226 | 21858 ft | 389 kts | 178° |
| 2026-05-04 14:41 | 13.40116 | 121.03285 | 22497 ft | 392 kts | 178° |
| 2026-05-04 14:42 | 13.34592 | 121.03344 | 23065 ft | 396 kts | 178° |
| 2026-05-04 14:42 | 13.32738 | 121.03363 | 23206 ft | 398 kts | 178° |
| 2026-05-04 14:42 | 13.29921 | 121.03391 | 23439 ft | 400 kts | 178° |
| 2026-05-04 14:43 | 13.27117 | 121.03419 | 23710 ft | 402 kts | 178° |
| 2026-05-04 14:43 | 13.23391 | 121.03456 | 24069 ft | 404 kts | 178° |
| 2026-05-04 14:43 | 13.21486 | 121.03474 | 24252 ft | 405 kts | 179° |
| 2026-05-04 14:43 | 13.17695 | 121.03509 | 24621 ft | 408 kts | 179° |
| 2026-05-04 14:44 | 13.15772 | 121.03528 | 24810 ft | 409 kts | 179° |
| 2026-05-04 14:44 | 13.12916 | 121.03555 | 25086 ft | 410 kts | 179° |
| 2026-05-04 14:44 | 13.09073 | 121.03593 | 25445 ft | 412 kts | 179° |
| 2026-05-04 14:44 | 13.06215 | 121.03621 | 25702 ft | 414 kts | 179° |
| 2026-05-04 14:45 | 13.03295 | 121.03650 | 25962 ft | 415 kts | 179° |
| 2026-05-04 14:45 | 13.00374 | 121.03679 | 26231 ft | 416 kts | 179° |
| 2026-05-04 14:45 | 12.97463 | 121.03707 | 26504 ft | 417 kts | 179° |
| 2026-05-04 14:45 | 12.95528 | 121.03726 | 26681 ft | 417 kts | 179° |
| 2026-05-04 14:46 | 12.92609 | 121.03755 | 26940 ft | 418 kts | 179° |
| 2026-05-04 14:46 | 12.88720 | 121.03794 | 27284 ft | 420 kts | 179° |
| 2026-05-04 14:46 | 12.86697 | 121.03814 | 27464 ft | 421 kts | 179° |
| 2026-05-04 14:46 | 12.82756 | 121.03853 | 27818 ft | 422 kts | 179° |
| 2026-05-04 14:47 | 12.80772 | 121.03873 | 28003 ft | 423 kts | 179° |
| 2026-05-04 14:47 | 12.77803 | 121.03902 | 28276 ft | 424 kts | 179° |
| 2026-05-04 14:47 | 12.73840 | 121.03941 | 28634 ft | 426 kts | 179° |
| 2026-05-04 14:47 | 12.71825 | 121.03961 | 28816 ft | 427 kts | 179° |
| 2026-05-04 14:48 | 12.68851 | 121.03991 | 29086 ft | 428 kts | 179° |
| 2026-05-04 14:48 | 12.64827 | 121.04031 | 29480 ft | 430 kts | 179° |
| 2026-05-04 14:48 | 12.61806 | 121.04062 | 29746 ft | 432 kts | 179° |
| 2026-05-04 14:48 | 12.58806 | 121.04092 | 29998 ft | 434 kts | 179° |
| 2026-05-04 14:49 | 12.56766 | 121.04113 | 30165 ft | 435 kts | 179° |
| 2026-05-04 14:49 | 12.53722 | 121.04144 | 30416 ft | 437 kts | 179° |
| 2026-05-04 14:49 | 12.49643 | 121.04185 | 30757 ft | 439 kts | 179° |
| 2026-05-04 14:49 | 12.46526 | 121.04216 | 30949 ft | 440 kts | 179° |
| 2026-05-04 14:50 | 12.41408 | 121.04446 | 30997 ft | 439 kts | 172° |
| 2026-05-04 14:50 | 12.35580 | 121.06193 | 31015 ft | 439 kts | 155° |
| 2026-05-04 14:51 | 12.32035 | 121.08300 | 30982 ft | 440 kts | 144° |
| 2026-05-04 14:51 | 12.29667 | 121.10303 | 30955 ft | 440 kts | 138° |
| 2026-05-04 14:51 | 12.25941 | 121.13861 | 30935 ft | 440 kts | 137° |
| 2026-05-04 14:52 | 12.21481 | 121.18166 | 30940 ft | 440 kts | 137° |
| 2026-05-04 14:52 | 12.16256 | 121.23180 | 30945 ft | 439 kts | 137° |
| 2026-05-04 14:53 | 12.11781 | 121.27461 | 30949 ft | 439 kts | 137° |
| 2026-05-04 14:53 | 12.07312 | 121.31731 | 30945 ft | 439 kts | 137° |
| 2026-05-04 14:54 | 12.03563 | 121.35312 | 30937 ft | 439 kts | 137° |
| 2026-05-04 14:54 | 11.99094 | 121.39577 | 30931 ft | 439 kts | 137° |
| 2026-05-04 14:55 | 11.94608 | 121.43857 | 30928 ft | 438 kts | 137° |
| 2026-05-04 14:55 | 11.90169 | 121.48090 | 30927 ft | 438 kts | 137° |
| 2026-05-04 14:56 | 11.85656 | 121.52393 | 30928 ft | 437 kts | 137° |
| 2026-05-04 14:56 | 11.81202 | 121.56639 | 30929 ft | 437 kts | 137° |
| 2026-05-04 14:57 | 11.76720 | 121.60909 | 30928 ft | 437 kts | 137° |
| 2026-05-04 14:57 | 11.72273 | 121.65147 | 30928 ft | 437 kts | 137° |
| 2026-05-04 14:58 | 11.67775 | 121.69429 | 30928 ft | 437 kts | 137° |
| 2026-05-04 14:58 | 11.63319 | 121.73663 | 30927 ft | 437 kts | 137° |
| 2026-05-04 14:59 | 11.58849 | 121.77905 | 30927 ft | 437 kts | 137° |
| 2026-05-04 15:00 | 11.52141 | 121.84281 | 30928 ft | 437 kts | 137° |
| 2026-05-04 15:00 | 11.46924 | 121.89231 | 30928 ft | 437 kts | 137° |
| 2026-05-04 15:01 | 11.40229 | 121.95573 | 30928 ft | 437 kts | 137° |
| 2026-05-04 15:01 | 11.35777 | 121.99794 | 30928 ft | 437 kts | 137° |
| 2026-05-04 15:02 | 11.32045 | 122.03332 | 30931 ft | 437 kts | 137° |
| 2026-05-04 15:02 | 11.27583 | 122.07561 | 30943 ft | 437 kts | 137° |
| 2026-05-04 15:03 | 11.22350 | 122.12518 | 30966 ft | 437 kts | 137° |
| 2026-05-04 15:03 | 11.18651 | 122.16023 | 30986 ft | 437 kts | 137° |
| 2026-05-04 15:04 | 11.14175 | 122.20263 | 30995 ft | 437 kts | 137° |
| 2026-05-04 15:04 | 11.09701 | 122.24500 | 30910 ft | 438 kts | 137° |
| 2026-05-04 15:05 | 11.04502 | 122.29414 | 30823 ft | 438 kts | 137° |
| 2026-05-04 15:05 | 11.00008 | 122.33651 | 30877 ft | 438 kts | 137° |
| 2026-05-04 15:06 | 10.96258 | 122.37192 | 30958 ft | 438 kts | 137° |
| 2026-05-04 15:07 | 10.89535 | 122.43538 | 30974 ft | 438 kts | 137° |
| 2026-05-04 15:07 | 10.83950 | 122.48138 | 30960 ft | 438 kts | 145° |
| 2026-05-04 15:08 | 10.78682 | 122.51415 | 30941 ft | 439 kts | 152° |
| 2026-05-04 15:08 | 10.74070 | 122.53684 | 30931 ft | 439 kts | 155° |
| 2026-05-04 15:09 | 10.68495 | 122.56318 | 30927 ft | 439 kts | 155° |
| 2026-05-04 15:09 | 10.62918 | 122.58953 | 30928 ft | 439 kts | 155° |
| 2026-05-04 15:10 | 10.56372 | 122.62048 | 30037 ft | 440 kts | 155° |
| 2026-05-04 15:10 | 10.54543 | 122.62914 | 29684 ft | 438 kts | 155° |
| 2026-05-04 15:10 | 10.48968 | 122.65550 | 28644 ft | 432 kts | 155° |
| 2026-05-04 15:11 | 10.46231 | 122.66845 | 28085 ft | 429 kts | 155° |
| 2026-05-04 15:11 | 10.43541 | 122.68117 | 27536 ft | 424 kts | 154° |
| 2026-05-04 15:11 | 10.40877 | 122.69376 | 27019 ft | 418 kts | 154° |
| 2026-05-04 15:11 | 10.38245 | 122.70618 | 26520 ft | 412 kts | 154° |
| 2026-05-04 15:12 | 10.35645 | 122.71844 | 26050 ft | 406 kts | 154° |
| 2026-05-04 15:12 | 10.33089 | 122.73048 | 25588 ft | 401 kts | 154° |
| 2026-05-04 15:12 | 10.30565 | 122.74239 | 25125 ft | 396 kts | 154° |
| 2026-05-04 15:12 | 10.28056 | 122.75423 | 24660 ft | 392 kts | 154° |
| 2026-05-04 15:13 | 10.25600 | 122.76582 | 24208 ft | 388 kts | 154° |
| 2026-05-04 15:13 | 10.23141 | 122.77743 | 23753 ft | 384 kts | 154° |
| 2026-05-04 15:13 | 10.20705 | 122.78893 | 23297 ft | 381 kts | 154° |
| 2026-05-04 15:13 | 10.18280 | 122.80036 | 22839 ft | 378 kts | 154° |
| 2026-05-04 15:14 | 10.15874 | 122.81169 | 22382 ft | 375 kts | 154° |
| 2026-05-04 15:14 | 10.13514 | 122.82278 | 21927 ft | 373 kts | 154° |
| 2026-05-04 15:14 | 10.10348 | 122.83768 | 21316 ft | 370 kts | 154° |
| 2026-05-04 15:14 | 10.07997 | 122.84874 | 20864 ft | 368 kts | 153° |
| 2026-05-04 15:15 | 10.06460 | 122.85598 | 20579 ft | 367 kts | 153° |
| 2026-05-04 15:15 | 10.04124 | 122.86698 | 20139 ft | 364 kts | 153° |
| 2026-05-04 15:15 | 10.01054 | 122.88145 | 19556 ft | 362 kts | 153° |
| 2026-05-04 15:16 | 9.97246 | 122.89941 | 18835 ft | 359 kts | 153° |
| 2026-05-04 15:16 | 9.94948 | 122.91023 | 18396 ft | 358 kts | 153° |
| 2026-05-04 15:16 | 9.90435 | 122.93149 | 17532 ft | 354 kts | 153° |
| 2026-05-04 15:17 | 9.87385 | 122.94584 | 16962 ft | 353 kts | 153° |
| 2026-05-04 15:17 | 9.83617 | 122.96356 | 16223 ft | 351 kts | 153° |
| 2026-05-04 15:17 | 9.81363 | 122.97421 | 15772 ft | 351 kts | 152° |
| 2026-05-04 15:18 | 9.79282 | 122.98759 | 15310 ft | 348 kts | 138° |
| 2026-05-04 15:18 | 9.77583 | 123.00545 | 14784 ft | 346 kts | 126° |
| 2026-05-04 15:18 | 9.76188 | 123.02507 | 14272 ft | 344 kts | 124° |
| 2026-05-04 15:19 | 9.73466 | 123.06469 | 13358 ft | 336 kts | 124° |
| 2026-05-04 15:19 | 9.71684 | 123.09052 | 12828 ft | 331 kts | 124° |
| 2026-05-04 15:19 | 9.69476 | 123.12232 | 12110 ft | 328 kts | 124° |
| 2026-05-04 15:20 | 9.68142 | 123.14147 | 11665 ft | 327 kts | 124° |
| 2026-05-04 15:20 | 9.66831 | 123.16029 | 11223 ft | 326 kts | 124° |
| 2026-05-04 15:20 | 9.65526 | 123.17902 | 10783 ft | 324 kts | 124° |
| 2026-05-04 15:20 | 9.64225 | 123.19769 | 10345 ft | 323 kts | 124° |
| 2026-05-04 15:21 | 9.62942 | 123.21610 | 10140 ft | 312 kts | 124° |
| 2026-05-04 15:21 | 9.61713 | 123.23366 | 10007 ft | 299 kts | 124° |
| 2026-05-04 15:21 | 9.59365 | 123.26752 | 9408 ft | 289 kts | 124° |
| 2026-05-04 15:22 | 9.58213 | 123.28406 | 9048 ft | 288 kts | 124° |
| 2026-05-04 15:22 | 9.57057 | 123.30062 | 8691 ft | 286 kts | 124° |
| 2026-05-04 15:22 | 9.54376 | 123.33905 | 7856 ft | 283 kts | 124° |
| 2026-05-04 15:23 | 9.53617 | 123.34991 | 7627 ft | 281 kts | 124° |
| 2026-05-04 15:23 | 9.52486 | 123.36622 | 7274 ft | 280 kts | 124° |
| 2026-05-04 15:23 | 9.51373 | 123.38216 | 6931 ft | 278 kts | 124° |
| 2026-05-04 15:23 | 9.50248 | 123.39819 | 6581 ft | 277 kts | 123° |
| 2026-05-04 15:24 | 9.48024 | 123.43019 | 5890 ft | 274 kts | 123° |
| 2026-05-04 15:24 | 9.45829 | 123.46169 | 5205 ft | 271 kts | 123° |
| 2026-05-04 15:25 | 9.44734 | 123.47737 | 4863 ft | 269 kts | 123° |
| 2026-05-04 15:25 | 9.43304 | 123.49786 | 4415 ft | 267 kts | 123° |
| 2026-05-04 15:25 | 9.42583 | 123.50818 | 4189 ft | 266 kts | 123° |
| 2026-05-04 15:26 | 9.39737 | 123.53062 | 3459 ft | 270 kts | 172° |
| 2026-05-04 15:26 | 9.37881 | 123.52771 | 3280 ft | 264 kts | 203° |
| 2026-05-04 15:26 | 9.34783 | 123.51077 | 3238 ft | 238 kts | 207° |
| 2026-05-04 15:27 | 9.33354 | 123.50293 | 3196 ft | 226 kts | 210° |
| 2026-05-04 15:27 | 9.32071 | 123.47745 | 3053 ft | 205 kts | 276° |
| 2026-05-04 15:28 | 9.32445 | 123.45026 | 2762 ft | 186 kts | 279° |
| 2026-05-04 15:28 | 9.32595 | 123.43705 | 2465 ft | 185 kts | 277° |
| 2026-05-04 15:28 | 9.32789 | 123.41205 | 1985 ft | 165 kts | 275° |
| 2026-05-04 15:29 | 9.32857 | 123.40073 | 1754 ft | 153 kts | 275° |
| 2026-05-04 15:30 | 9.33093 | 123.35972 | 1011 ft | 144 kts | 275° |
| 2026-05-04 15:30 | 9.33276 | 123.32938 | 414 ft | 142 kts | 273° |
| 2026-05-04 15:31 | 9.33381 | 123.30943 | 78 ft | 140 kts | 272° |
| 2026-05-04 15:31 | 9.33416 | 123.30003 | 123 ft | 137 kts | 272° |
| 2026-05-04 15:32 | 9.34790 | 123.27502 | 1974 ft | 128 kts | 360° |
| 2026-05-04 15:32 | 9.36339 | 123.28078 | 2119 ft | 169 kts | 56° |
| 2026-05-04 15:33 | 9.37150 | 123.30558 | 2077 ft | 205 kts | 72° |
| 2026-05-04 15:34 | 9.38131 | 123.35060 | 2309 ft | 239 kts | 84° |
| 2026-05-04 15:34 | 9.38289 | 123.36796 | 2779 ft | 256 kts | 84° |
| 2026-05-04 15:34 | 9.38690 | 123.40473 | 2991 ft | 261 kts | 83° |
| 2026-05-04 15:35 | 9.39136 | 123.44119 | 2960 ft | 255 kts | 82° |
| 2026-05-04 15:35 | 9.39355 | 123.45868 | 2795 ft | 246 kts | 82° |
| 2026-05-04 15:35 | 9.39378 | 123.47570 | 2619 ft | 239 kts | 104° |
| 2026-05-04 15:36 | 9.36531 | 123.49841 | 2237 ft | 230 kts | 172° |
| 2026-05-04 15:36 | 9.35467 | 123.49866 | 2141 ft | 226 kts | 180° |
| 2026-05-04 15:36 | 9.33899 | 123.49754 | 2000 ft | 219 kts | 191° |
| 2026-05-04 15:37 | 9.32656 | 123.48995 | 2013 ft | 204 kts | 234° |
| 2026-05-04 15:37 | 9.32289 | 123.47288 | 2001 ft | 176 kts | 276° |
| 2026-05-04 15:37 | 9.32406 | 123.46107 | 1967 ft | 161 kts | 278° |
| 2026-05-04 15:37 | 9.32488 | 123.45346 | 1973 ft | 160 kts | 278° |
| 2026-05-04 15:38 | 9.32592 | 123.44221 | 1983 ft | 160 kts | 276° |
| 2026-05-04 15:38 | 9.32704 | 123.42725 | 1988 ft | 160 kts | 275° |
| 2026-05-04 15:38 | 9.32753 | 123.41967 | 1985 ft | 159 kts | 275° |
| 2026-05-04 15:38 | 9.32837 | 123.40539 | 1816 ft | 147 kts | 275° |
| 2026-05-04 15:39 | 9.32875 | 123.39843 | 1710 ft | 146 kts | 275° |
| 2026-05-04 15:39 | 9.32933 | 123.38815 | 1533 ft | 145 kts | 275° |
| 2026-05-04 15:39 | 9.33054 | 123.36770 | 1162 ft | 144 kts | 274° |
| 2026-05-04 15:40 | 9.33125 | 123.35416 | 909 ft | 143 kts | 274° |
| 2026-05-04 15:40 | 9.33162 | 123.34750 | 783 ft | 143 kts | 274° |
| 2026-05-04 15:40 | 9.33220 | 123.33746 | 607 ft | 142 kts | 275° |
| 2026-05-04 15:40 | 9.33297 | 123.32742 | 386 ft | 141 kts | 274° |
| 2026-05-04 15:41 | 9.33342 | 123.31741 | 195 ft | 141 kts | 272° |
| 2026-05-04 15:41 | 9.33399 | 123.30454 | 63 ft | 125 kts | 274° |
| 2026-05-04 15:41 | 9.33430 | 123.29998 | 63 ft | 68 kts | 274° |
| 2026-05-04 15:41 | 9.33443 | 123.29775 | 63 ft | 13 kts | 273° |
| 2026-05-04 15:42 | 9.33437 | 123.29739 | 63 ft | 5 kts | 238° |
| 2026-05-04 15:42 | 9.33413 | 123.29712 | 64 ft | 5 kts | 228° |
| 2026-05-04 15:42 | 9.33394 | 123.29691 | 64 ft | 4 kts | 227° |
| 2026-05-04 15:42 | 9.33375 | 123.29667 | 64 ft | 4 kts | 243° |
| 2026-05-04 15:43 | 9.33370 | 123.29640 | 64 ft | 3 kts | 266° |
| 2026-05-04 15:43 | 9.33369 | 123.29617 | 64 ft | 2 kts | 256° |
| 2026-05-04 15:43 | 9.33358 | 123.29612 | 64 ft | 1 kts | 160° |
| 2026-05-04 15:43 | 9.33341 | 123.29623 | 64 ft | 3 kts | 147° |
| 2026-05-04 15:44 | 9.33325 | 123.29633 | 64 ft | 0 kts | 151° |